sensor_id;sensor_type;location;lat;lon;timestamp;P1;durP1;ratioP1;P2;durP2;ratioP2
7306;SDS011;3694;48.732;9.248;2023-05-15T05:55:08;4.00;;;3.70;;
7306;SDS011;3694;48.732;9.248;2023-05-15T05:57:33;6.60;;;3.83;;
7306;SDS011;3694;48.732;9.248;2023-05-15T05:59:59;3.80;;;3.50;;
7306;SDS011;3694;48.732;9.248;2023-05-15T06:02:25;3.90;;;3.60;;
7306;SDS011;3694;48.732;9.248;2023-05-15T06:04:50;3.77;;;3.47;;
7306;SDS011;3694;48.732;9.248;2023-05-15T06:07:16;2.90;;;2.70;;
7306;SDS011;3694;48.732;9.248;2023-05-15T06:09:41;3.47;;;3.20;;
7306;SDS011;3694;48.732;9.248;2023-05-15T06:12:07;3.23;;;3.03;;
7306;SDS011;3694;48.732;9.248;2023-05-15T06:14:33;3.80;;;2.90;;
7306;SDS011;3694;48.732;9.248;2023-05-15T06:16:59;3.60;;;3.30;;
7306;SDS011;3694;48.732;9.248;2023-05-15T06:19:25;3.00;;;2.80;;
7306;SDS011;3694;48.732;9.248;2023-05-15T06:21:50;3.28;;;3.08;;
7306;SDS011;3694;48.732;9.248;2023-05-15T06:24:16;4.07;;;3.17;;
7306;SDS011;3694;48.732;9.248;2023-05-15T06:26:42;3.95;;;3.60;;
7306;SDS011;3694;48.732;9.248;2023-05-15T06:29:07;3.70;;;3.40;;
7306;SDS011;3694;48.732;9.248;2023-05-15T06:31:33;3.70;;;3.40;;
7306;SDS011;3694;48.732;9.248;2023-05-15T06:33:58;4.00;;;3.70;;
7306;SDS011;3694;48.732;9.248;2023-05-15T06:36:24;4.53;;;4.13;;
7306;SDS011;3694;48.732;9.248;2023-05-15T06:38:49;4.18;;;3.88;;
7306;SDS011;3694;48.732;9.248;2023-05-15T06:41:15;4.10;;;3.75;;
7306;SDS011;3694;48.732;9.248;2023-05-15T06:43:40;4.10;;;3.80;;
7306;SDS011;3694;48.732;9.248;2023-05-15T06:46:06;4.43;;;4.10;;
7306;SDS011;3694;48.732;9.248;2023-05-15T06:48:31;4.23;;;3.93;;
7306;SDS011;3694;48.732;9.248;2023-05-15T06:50:57;4.10;;;3.80;;
7306;SDS011;3694;48.732;9.248;2023-05-15T06:53:22;4.40;;;4.10;;
7306;SDS011;3694;48.732;9.248;2023-05-15T06:55:48;3.80;;;3.50;;
7306;SDS011;3694;48.732;9.248;2023-05-15T06:58:13;4.63;;;4.23;;
7306;SDS011;3694;48.732;9.248;2023-05-15T07:00:41;5.13;;;4.30;;
7306;SDS011;3694;48.732;9.248;2023-05-15T07:03:07;4.53;;;4.13;;
7306;SDS011;3694;48.732;9.248;2023-05-15T07:05:33;4.67;;;4.27;;
7306;SDS011;3694;48.732;9.248;2023-05-15T07:07:58;4.00;;;3.70;;
7306;SDS011;3694;48.732;9.248;2023-05-15T07:10:24;4.17;;;3.87;;
7306;SDS011;3694;48.732;9.248;2023-05-15T07:12:50;4.90;;;4.50;;
7306;SDS011;3694;48.732;9.248;2023-05-15T07:15:15;4.27;;;3.87;;
7306;SDS011;3694;48.732;9.248;2023-05-15T07:17:41;3.93;;;3.53;;
7306;SDS011;3694;48.732;9.248;2023-05-15T07:20:07;3.80;;;3.50;;
7306;SDS011;3694;48.732;9.248;2023-05-15T07:22:33;4.40;;;4.00;;
7306;SDS011;3694;48.732;9.248;2023-05-15T07:24:58;3.87;;;3.57;;
7306;SDS011;3694;48.732;9.248;2023-05-15T07:27:24;3.40;;;3.20;;
7306;SDS011;3694;48.732;9.248;2023-05-15T07:29:50;3.90;;;3.60;;
7306;SDS011;3694;48.732;9.248;2023-05-15T07:32:16;3.70;;;3.40;;
7306;SDS011;3694;48.732;9.248;2023-05-15T07:34:42;3.40;;;3.20;;
7306;SDS011;3694;48.732;9.248;2023-05-15T07:37:08;3.57;;;3.27;;
7306;SDS011;3694;48.732;9.248;2023-05-15T07:39:33;3.83;;;3.53;;
7306;SDS011;3694;48.732;9.248;2023-05-15T07:41:59;3.33;;;3.13;;
7306;SDS011;3694;48.732;9.248;2023-05-15T07:44:25;3.15;;;2.85;;
7306;SDS011;3694;48.732;9.248;2023-05-15T07:46:50;3.28;;;3.08;;
7306;SDS011;3694;48.732;9.248;2023-05-15T07:49:16;2.90;;;2.70;;
7306;SDS011;3694;48.732;9.248;2023-05-15T07:51:41;2.92;;;2.72;;
7306;SDS011;3694;48.732;9.248;2023-05-15T07:54:07;2.90;;;2.70;;
7306;SDS011;3694;48.732;9.248;2023-05-15T07:56:32;2.90;;;2.70;;
7306;SDS011;3694;48.732;9.248;2023-05-15T07:58:58;2.80;;;2.60;;
7306;SDS011;3694;48.732;9.248;2023-05-15T08:01:23;3.03;;;2.73;;
7306;SDS011;3694;48.732;9.248;2023-05-15T08:03:49;3.47;;;2.60;;
7306;SDS011;3694;48.732;9.248;2023-05-15T08:06:14;2.77;;;2.57;;
7306;SDS011;3694;48.732;9.248;2023-05-15T08:08:40;2.80;;;2.60;;
7306;SDS011;3694;48.732;9.248;2023-05-15T08:11:06;2.07;;;1.97;;
7306;SDS011;3694;48.732;9.248;2023-05-15T08:13:31;2.53;;;2.33;;
7306;SDS011;3694;48.732;9.248;2023-05-15T08:15:57;2.70;;;2.50;;
7306;SDS011;3694;48.732;9.248;2023-05-15T08:18:22;2.30;;;2.20;;
7306;SDS011;3694;48.732;9.248;2023-05-15T08:20:48;2.10;;;2.00;;
7306;SDS011;3694;48.732;9.248;2023-05-15T08:23:13;2.63;;;2.43;;
7306;SDS011;3694;48.732;9.248;2023-05-15T08:25:39;3.37;;;2.90;;
7306;SDS011;3694;48.732;9.248;2023-05-15T08:28:05;2.50;;;2.30;;
7306;SDS011;3694;48.732;9.248;2023-05-15T08:30:30;2.90;;;2.70;;
7306;SDS011;3694;48.732;9.248;2023-05-15T08:32:56;2.80;;;2.60;;
7306;SDS011;3694;48.732;9.248;2023-05-15T08:35:21;3.00;;;2.70;;
7306;SDS011;3694;48.732;9.248;2023-05-15T08:37:47;2.57;;;2.37;;
7306;SDS011;3694;48.732;9.248;2023-05-15T08:40:13;2.63;;;2.43;;
7306;SDS011;3694;48.732;9.248;2023-05-15T08:42:42;2.60;;;2.40;;
7306;SDS011;3694;48.732;9.248;2023-05-15T08:45:11;2.50;;;2.30;;
7306;SDS011;3694;48.732;9.248;2023-05-15T08:47:38;2.77;;;2.57;;
7306;SDS011;3694;48.732;9.248;2023-05-15T08:50:05;2.57;;;2.37;;
7306;SDS011;3694;48.732;9.248;2023-05-15T08:52:34;2.90;;;2.70;;
7306;SDS011;3694;48.732;9.248;2023-05-15T08:55:00;3.20;;;2.90;;
7306;SDS011;3694;48.732;9.248;2023-05-15T08:57:27;2.90;;;2.33;;
7306;SDS011;3694;48.732;9.248;2023-05-15T08:59:53;2.70;;;2.50;;
7306;SDS011;3694;48.732;9.248;2023-05-15T09:02:19;2.87;;;2.53;;
7306;SDS011;3694;48.732;9.248;2023-05-15T09:04:45;2.37;;;2.27;;
7306;SDS011;3694;48.732;9.248;2023-05-15T09:07:11;2.70;;;2.50;;
7306;SDS011;3694;48.732;9.248;2023-05-15T09:09:37;2.63;;;2.43;;
7306;SDS011;3694;48.732;9.248;2023-05-15T09:12:05;3.00;;;2.73;;
7306;SDS011;3694;48.732;9.248;2023-05-15T09:14:32;2.80;;;2.60;;
7306;SDS011;3694;48.732;9.248;2023-05-15T09:16:57;2.80;;;2.60;;
7306;SDS011;3694;48.732;9.248;2023-05-15T09:19:23;2.90;;;2.70;;
7306;SDS011;3694;48.732;9.248;2023-05-15T09:21:49;2.90;;;2.70;;
7306;SDS011;3694;48.732;9.248;2023-05-15T09:26:46;2.60;;;2.40;;
7306;SDS011;3694;48.732;9.248;2023-05-15T09:29:24;2.70;;;2.50;;
7306;SDS011;3694;48.732;9.248;2023-05-15T09:31:51;2.70;;;2.50;;
7306;SDS011;3694;48.732;9.248;2023-05-15T09:34:17;2.70;;;2.50;;
7306;SDS011;3694;48.732;9.248;2023-05-15T09:36:42;2.70;;;2.50;;
7306;SDS011;3694;48.732;9.248;2023-05-15T09:39:11;3.13;;;2.87;;
7306;SDS011;3694;48.732;9.248;2023-05-15T09:41:40;2.77;;;2.57;;
7306;SDS011;3694;48.732;9.248;2023-05-15T09:44:07;2.70;;;2.50;;
7306;SDS011;3694;48.732;9.248;2023-05-15T09:46:51;2.63;;;2.43;;
7306;SDS011;3694;48.732;9.248;2023-05-15T09:49:18;2.90;;;2.70;;
7306;SDS011;3694;48.732;9.248;2023-05-15T09:51:43;3.47;;;2.87;;
7306;SDS011;3694;48.732;9.248;2023-05-15T09:54:14;2.97;;;2.77;;
7306;SDS011;3694;48.732;9.248;2023-05-15T09:56:44;3.00;;;2.80;;
7306;SDS011;3694;48.732;9.248;2023-05-15T09:59:14;3.27;;;3.00;;
7306;SDS011;3694;48.732;9.248;2023-05-15T10:01:42;3.10;;;2.90;;
7306;SDS011;3694;48.732;9.248;2023-05-15T10:04:12;3.57;;;2.83;;
7306;SDS011;3694;48.732;9.248;2023-05-15T10:06:39;3.10;;;2.90;;
7306;SDS011;3694;48.732;9.248;2023-05-15T10:09:06;2.77;;;2.47;;
7306;SDS011;3694;48.732;9.248;2023-05-15T10:11:38;3.60;;;2.90;;
7306;SDS011;3694;48.732;9.248;2023-05-15T10:14:06;2.57;;;2.37;;
7306;SDS011;3694;48.732;9.248;2023-05-15T10:16:33;2.80;;;2.60;;
7306;SDS011;3694;48.732;9.248;2023-05-15T10:19:03;2.60;;;2.40;;
7306;SDS011;3694;48.732;9.248;2023-05-15T10:21:34;3.67;;;3.10;;
7306;SDS011;3694;48.732;9.248;2023-05-15T10:24:01;2.90;;;2.70;;
7306;SDS011;3694;48.732;9.248;2023-05-15T10:29:00;2.10;;;2.00;;
7306;SDS011;3694;48.732;9.248;2023-05-15T10:31:28;3.03;;;2.20;;
7306;SDS011;3694;48.732;9.248;2023-05-15T10:33:55;2.07;;;1.87;;
7306;SDS011;3694;48.732;9.248;2023-05-15T10:36:20;1.93;;;1.83;;
7306;SDS011;3694;48.732;9.248;2023-05-15T10:38:47;2.47;;;2.27;;
7306;SDS011;3694;48.732;9.248;2023-05-15T10:41:14;4.60;;;2.60;;
7306;SDS011;3694;48.732;9.248;2023-05-15T10:43:41;2.40;;;2.20;;
7306;SDS011;3694;48.732;9.248;2023-05-15T10:46:08;3.20;;;2.47;;
7306;SDS011;3694;48.732;9.248;2023-05-15T10:48:34;2.00;;;1.90;;
7306;SDS011;3694;48.732;9.248;2023-05-15T10:51:01;2.20;;;2.03;;
7306;SDS011;3694;48.732;9.248;2023-05-15T10:53:26;2.23;;;2.13;;
7306;SDS011;3694;48.732;9.248;2023-05-15T10:55:52;2.33;;;2.23;;
7306;SDS011;3694;48.732;9.248;2023-05-15T10:58:24;2.30;;;2.10;;
7306;SDS011;3694;48.732;9.248;2023-05-15T11:00:49;2.17;;;2.07;;
7306;SDS011;3694;48.732;9.248;2023-05-15T11:03:15;2.50;;;2.23;;
7306;SDS011;3694;48.732;9.248;2023-05-15T11:06:07;2.80;;;2.60;;
7306;SDS011;3694;48.732;9.248;2023-05-15T11:08:38;2.47;;;2.33;;
7306;SDS011;3694;48.732;9.248;2023-05-15T11:11:05;2.57;;;2.40;;
7306;SDS011;3694;48.732;9.248;2023-05-15T11:14:05;2.30;;;2.10;;
7306;SDS011;3694;48.732;9.248;2023-05-15T11:21:47;2.17;;;1.97;;
7306;SDS011;3694;48.732;9.248;2023-05-15T11:24:20;2.33;;;2.13;;
7306;SDS011;3694;48.732;9.248;2023-05-15T11:26:51;2.53;;;2.20;;
7306;SDS011;3694;48.732;9.248;2023-05-15T11:29:23;1.80;;;1.70;;
7306;SDS011;3694;48.732;9.248;2023-05-15T11:31:48;2.23;;;1.90;;
7306;SDS011;3694;48.732;9.248;2023-05-15T11:34:14;2.20;;;1.90;;
7306;SDS011;3694;48.732;9.248;2023-05-15T11:36:41;1.90;;;1.80;;
7306;SDS011;3694;48.732;9.248;2023-05-15T11:39:10;1.70;;;1.60;;
7306;SDS011;3694;48.732;9.248;2023-05-15T11:41:36;2.03;;;1.93;;
7306;SDS011;3694;48.732;9.248;2023-05-15T11:44:03;1.87;;;1.77;;
7306;SDS011;3694;48.732;9.248;2023-05-15T11:46:28;2.03;;;1.93;;
7306;SDS011;3694;48.732;9.248;2023-05-15T11:48:56;2.60;;;2.40;;
7306;SDS011;3694;48.732;9.248;2023-05-15T11:51:23;2.17;;;2.07;;
7306;SDS011;3694;48.732;9.248;2023-05-15T11:53:51;2.20;;;2.10;;
7306;SDS011;3694;48.732;9.248;2023-05-15T11:56:18;2.83;;;2.03;;
7306;SDS011;3694;48.732;9.248;2023-05-15T11:58:47;2.47;;;2.27;;
7306;SDS011;3694;48.732;9.248;2023-05-15T12:01:14;1.50;;;1.40;;
7306;SDS011;3694;48.732;9.248;2023-05-15T12:03:39;2.67;;;2.07;;
7306;SDS011;3694;48.732;9.248;2023-05-15T12:06:05;2.13;;;2.00;;
7306;SDS011;3694;48.732;9.248;2023-05-15T12:08:34;2.20;;;2.00;;
7306;SDS011;3694;48.732;9.248;2023-05-15T12:11:02;1.80;;;1.70;;
7306;SDS011;3694;48.732;9.248;2023-05-15T12:13:29;2.13;;;2.03;;
7306;SDS011;3694;48.732;9.248;2023-05-15T12:15:56;2.33;;;2.00;;
7306;SDS011;3694;48.732;9.248;2023-05-15T12:18:22;2.00;;;1.90;;
7306;SDS011;3694;48.732;9.248;2023-05-15T12:20:50;2.27;;;2.00;;
7306;SDS011;3694;48.732;9.248;2023-05-15T12:23:17;1.70;;;1.60;;
7306;SDS011;3694;48.732;9.248;2023-05-15T12:25:44;1.87;;;1.77;;
7306;SDS011;3694;48.732;9.248;2023-05-15T12:28:11;1.70;;;1.60;;
7306;SDS011;3694;48.732;9.248;2023-05-15T12:30:37;1.90;;;1.80;;
7306;SDS011;3694;48.732;9.248;2023-05-15T12:33:04;2.70;;;1.83;;
7306;SDS011;3694;48.732;9.248;2023-05-15T12:35:34;2.63;;;1.53;;
7306;SDS011;3694;48.732;9.248;2023-05-15T12:38:03;1.60;;;1.50;;
7306;SDS011;3694;48.732;9.248;2023-05-15T12:40:33;2.07;;;1.97;;
7306;SDS011;3694;48.732;9.248;2023-05-15T12:43:03;2.40;;;1.80;;
7306;SDS011;3694;48.732;9.248;2023-05-15T12:45:32;1.73;;;1.60;;
7306;SDS011;3694;48.732;9.248;2023-05-15T12:47:59;2.20;;;2.00;;
7306;SDS011;3694;48.732;9.248;2023-05-15T12:50:25;1.93;;;1.83;;
7306;SDS011;3694;48.732;9.248;2023-05-15T12:52:59;2.53;;;2.33;;
7306;SDS011;3694;48.732;9.248;2023-05-15T12:57:51;1.97;;;1.87;;
7306;SDS011;3694;48.732;9.248;2023-05-15T13:00:19;2.33;;;2.13;;
7306;SDS011;3694;48.732;9.248;2023-05-15T13:02:51;4.00;;;2.10;;
7306;SDS011;3694;48.732;9.248;2023-05-15T13:05:17;2.23;;;2.10;;
7306;SDS011;3694;48.732;9.248;2023-05-15T13:07:43;2.40;;;2.03;;
7306;SDS011;3694;48.732;9.248;2023-05-15T13:10:09;2.50;;;2.30;;
7306;SDS011;3694;48.732;9.248;2023-05-15T13:12:43;2.60;;;2.40;;
7306;SDS011;3694;48.732;9.248;2023-05-15T13:15:23;2.50;;;2.30;;
7306;SDS011;3694;48.732;9.248;2023-05-15T13:17:53;2.93;;;2.07;;
7306;SDS011;3694;48.732;9.248;2023-05-15T13:20:21;2.47;;;2.27;;
7306;SDS011;3694;48.732;9.248;2023-05-15T13:22:48;2.33;;;2.17;;
7306;SDS011;3694;48.732;9.248;2023-05-15T13:25:16;2.60;;;2.40;;
7306;SDS011;3694;48.732;9.248;2023-05-15T13:27:42;2.47;;;2.27;;
7306;SDS011;3694;48.732;9.248;2023-05-15T13:30:08;3.93;;;1.97;;
7306;SDS011;3694;48.732;9.248;2023-05-15T13:32:35;5.87;;;2.33;;
7306;SDS011;3694;48.732;9.248;2023-05-15T13:35:00;2.80;;;2.43;;
7306;SDS011;3694;48.732;9.248;2023-05-15T13:37:26;2.53;;;2.17;;
7306;SDS011;3694;48.732;9.248;2023-05-15T13:39:52;2.40;;;2.23;;
7306;SDS011;3694;48.732;9.248;2023-05-15T13:42:18;2.30;;;2.10;;
7306;SDS011;3694;48.732;9.248;2023-05-15T13:44:43;2.13;;;2.03;;
7306;SDS011;3694;48.732;9.248;2023-05-15T13:47:09;2.50;;;2.37;;
7306;SDS011;3694;48.732;9.248;2023-05-15T13:49:34;2.60;;;2.40;;
7306;SDS011;3694;48.732;9.248;2023-05-15T13:52:00;3.03;;;2.60;;
7306;SDS011;3694;48.732;9.248;2023-05-15T13:54:26;2.67;;;2.47;;
7306;SDS011;3694;48.732;9.248;2023-05-15T13:56:51;3.00;;;2.70;;
7306;SDS011;3694;48.732;9.248;2023-05-15T13:59:17;2.63;;;2.43;;
7306;SDS011;3694;48.732;9.248;2023-05-15T14:01:42;2.70;;;2.50;;
7306;SDS011;3694;48.732;9.248;2023-05-15T14:04:08;3.00;;;2.80;;
7306;SDS011;3694;48.732;9.248;2023-05-15T14:06:34;2.47;;;2.27;;
7306;SDS011;3694;48.732;9.248;2023-05-15T14:08:59;2.80;;;2.60;;
7306;SDS011;3694;48.732;9.248;2023-05-15T14:11:25;2.77;;;2.57;;
7306;SDS011;3694;48.732;9.248;2023-05-15T14:13:50;2.40;;;2.30;;
7306;SDS011;3694;48.732;9.248;2023-05-15T14:16:16;2.20;;;2.10;;
7306;SDS011;3694;48.732;9.248;2023-05-15T14:18:41;3.73;;;2.53;;
7306;SDS011;3694;48.732;9.248;2023-05-15T14:21:07;2.80;;;2.60;;
7306;SDS011;3694;48.732;9.248;2023-05-15T14:23:32;2.67;;;2.47;;
7306;SDS011;3694;48.732;9.248;2023-05-15T14:25:58;2.70;;;2.50;;
7306;SDS011;3694;48.732;9.248;2023-05-15T14:28:23;2.33;;;2.20;;
7306;SDS011;3694;48.732;9.248;2023-05-15T14:30:49;2.50;;;2.30;;
7306;SDS011;3694;48.732;9.248;2023-05-15T14:33:14;2.60;;;2.40;;
7306;SDS011;3694;48.732;9.248;2023-05-15T14:35:40;2.60;;;2.40;;
7306;SDS011;3694;48.732;9.248;2023-05-15T14:38:05;2.30;;;2.20;;
7306;SDS011;3694;48.732;9.248;2023-05-15T14:40:31;2.80;;;2.47;;
7306;SDS011;3694;48.732;9.248;2023-05-15T14:42:56;3.07;;;2.63;;
7306;SDS011;3694;48.732;9.248;2023-05-15T14:45:22;3.00;;;2.80;;
7306;SDS011;3694;48.732;9.248;2023-05-15T14:47:47;2.87;;;2.67;;
7306;SDS011;3694;48.732;9.248;2023-05-15T14:50:13;2.37;;;2.17;;
7306;SDS011;3694;48.732;9.248;2023-05-15T14:52:38;2.63;;;2.43;;
7306;SDS011;3694;48.732;9.248;2023-05-15T14:55:04;2.80;;;2.60;;
7306;SDS011;3694;48.732;9.248;2023-05-15T14:57:30;2.60;;;2.40;;
7306;SDS011;3694;48.732;9.248;2023-05-15T14:59:56;2.73;;;2.53;;
7306;SDS011;3694;48.732;9.248;2023-05-15T15:02:21;2.57;;;2.37;;
7306;SDS011;3694;48.732;9.248;2023-05-15T15:04:47;2.23;;;2.13;;
7306;SDS011;3694;48.732;9.248;2023-05-15T15:07:12;2.50;;;2.30;;
7306;SDS011;3694;48.732;9.248;2023-05-15T15:09:38;2.73;;;2.53;;
7306;SDS011;3694;48.732;9.248;2023-05-15T15:12:04;2.70;;;2.50;;
7306;SDS011;3694;48.732;9.248;2023-05-15T15:14:30;2.87;;;2.57;;
7306;SDS011;3694;48.732;9.248;2023-05-15T15:16:55;3.10;;;2.83;;
7306;SDS011;3694;48.732;9.248;2023-05-15T15:19:21;3.43;;;2.87;;
7306;SDS011;3694;48.732;9.248;2023-05-15T15:21:47;3.10;;;2.80;;
7306;SDS011;3694;48.732;9.248;2023-05-15T15:24:12;4.23;;;2.80;;
7306;SDS011;3694;48.732;9.248;2023-05-15T15:26:38;2.70;;;2.50;;
7306;SDS011;3694;48.732;9.248;2023-05-15T15:29:04;2.77;;;2.57;;
7306;SDS011;3694;48.732;9.248;2023-05-15T15:31:30;2.47;;;2.27;;
7306;SDS011;3694;48.732;9.248;2023-05-15T15:33:56;2.57;;;2.37;;
7306;SDS011;3694;48.732;9.248;2023-05-15T15:36:22;2.63;;;2.43;;
7306;SDS011;3694;48.732;9.248;2023-05-15T15:38:48;2.80;;;2.47;;
7306;SDS011;3694;48.732;9.248;2023-05-15T15:41:14;4.10;;;2.50;;
7306;SDS011;3694;48.732;9.248;2023-05-15T15:43:40;3.50;;;2.40;;
7306;SDS011;3694;48.732;9.248;2023-05-15T15:46:05;2.80;;;2.30;;
7306;SDS011;3694;48.732;9.248;2023-05-15T15:48:32;2.80;;;2.60;;
7306;SDS011;3694;48.732;9.248;2023-05-15T15:50:57;2.83;;;2.40;;
7306;SDS011;3694;48.732;9.248;2023-05-15T15:53:23;2.47;;;2.23;;
7306;SDS011;3694;48.732;9.248;2023-05-15T15:55:49;2.70;;;2.50;;
7306;SDS011;3694;48.732;9.248;2023-05-15T15:58:15;3.00;;;2.80;;
7306;SDS011;3694;48.732;9.248;2023-05-15T16:00:43;2.67;;;2.47;;
7306;SDS011;3694;48.732;9.248;2023-05-15T16:03:09;3.10;;;2.90;;
7306;SDS011;3694;48.732;9.248;2023-05-15T16:05:34;2.80;;;2.60;;
7306;SDS011;3694;48.732;9.248;2023-05-15T16:08:00;3.37;;;3.07;;
7306;SDS011;3694;48.732;9.248;2023-05-15T16:10:25;3.13;;;2.83;;
7306;SDS011;3694;48.732;9.248;2023-05-15T16:12:51;3.50;;;3.20;;
7306;SDS011;3694;48.732;9.248;2023-05-15T16:15:16;4.53;;;3.57;;
7306;SDS011;3694;48.732;9.248;2023-05-15T16:17:42;4.33;;;3.77;;
7306;SDS011;3694;48.732;9.248;2023-05-15T16:20:08;3.37;;;3.07;;
7306;SDS011;3694;48.732;9.248;2023-05-15T16:22:34;3.00;;;2.80;;
7306;SDS011;3694;48.732;9.248;2023-05-15T16:25:00;2.67;;;2.47;;
7306;SDS011;3694;48.732;9.248;2023-05-15T16:27:25;3.17;;;2.50;;
7306;SDS011;3694;48.732;9.248;2023-05-15T16:29:51;2.43;;;2.23;;
7306;SDS011;3694;48.732;9.248;2023-05-15T16:32:16;2.60;;;2.40;;
7306;SDS011;3694;48.732;9.248;2023-05-15T16:34:42;3.07;;;2.77;;
7306;SDS011;3694;48.732;9.248;2023-05-15T16:37:07;3.20;;;3.00;;
7306;SDS011;3694;48.732;9.248;2023-05-15T16:39:36;3.37;;;3.07;;
7306;SDS011;3694;48.732;9.248;2023-05-15T16:42:03;3.90;;;3.60;;
7306;SDS011;3694;48.732;9.248;2023-05-15T16:44:29;5.17;;;3.80;;
7306;SDS011;3694;48.732;9.248;2023-05-15T16:46:56;4.00;;;3.60;;
7306;SDS011;3694;48.732;9.248;2023-05-15T16:49:24;4.27;;;3.87;;
7306;SDS011;3694;48.732;9.248;2023-05-15T16:51:49;3.70;;;3.40;;
7306;SDS011;3694;48.732;9.248;2023-05-15T16:54:15;4.23;;;3.10;;
7306;SDS011;3694;48.732;9.248;2023-05-15T16:56:40;3.50;;;3.20;;
7306;SDS011;3694;48.732;9.248;2023-05-15T16:59:06;4.27;;;3.00;;
7306;SDS011;3694;48.732;9.248;2023-05-15T17:01:31;4.07;;;3.67;;
7306;SDS011;3694;48.732;9.248;2023-05-15T17:03:57;4.60;;;2.50;;
7306;SDS011;3694;48.732;9.248;2023-05-15T17:06:23;2.20;;;2.10;;
7306;SDS011;3694;48.732;9.248;2023-05-15T17:08:48;2.20;;;2.00;;
7306;SDS011;3694;48.732;9.248;2023-05-15T17:11:14;3.00;;;2.80;;
7306;SDS011;3694;48.732;9.248;2023-05-15T17:13:39;3.00;;;2.70;;
7306;SDS011;3694;48.732;9.248;2023-05-15T17:16:05;2.63;;;2.43;;
7306;SDS011;3694;48.732;9.248;2023-05-15T17:18:30;2.50;;;2.30;;
7306;SDS011;3694;48.732;9.248;2023-05-15T17:20:56;2.50;;;2.30;;
7306;SDS011;3694;48.732;9.248;2023-05-15T17:23:22;1.80;;;1.70;;
7306;SDS011;3694;48.732;9.248;2023-05-15T17:25:48;1.90;;;1.80;;
7306;SDS011;3694;48.732;9.248;2023-05-15T17:28:13;2.70;;;2.50;;
7306;SDS011;3694;48.732;9.248;2023-05-15T17:30:39;2.27;;;2.07;;
7306;SDS011;3694;48.732;9.248;2023-05-15T17:33:06;2.30;;;2.10;;
7306;SDS011;3694;48.732;9.248;2023-05-15T17:35:31;1.93;;;1.73;;
7306;SDS011;3694;48.732;9.248;2023-05-15T17:37:57;2.40;;;2.20;;
7306;SDS011;3694;48.732;9.248;2023-05-15T17:40:22;1.93;;;1.83;;
7306;SDS011;3694;48.732;9.248;2023-05-15T17:42:48;2.63;;;2.30;;
7306;SDS011;3694;48.732;9.248;2023-05-15T17:45:13;2.30;;;2.10;;
7306;SDS011;3694;48.732;9.248;2023-05-15T17:47:39;2.13;;;2.00;;
7306;SDS011;3694;48.732;9.248;2023-05-15T17:50:05;2.30;;;2.10;;
7306;SDS011;3694;48.732;9.248;2023-05-15T17:52:31;2.30;;;2.10;;
7306;SDS011;3694;48.732;9.248;2023-05-15T17:54:58;2.40;;;2.23;;
7306;SDS011;3694;48.732;9.248;2023-05-15T17:57:24;2.23;;;2.00;;
7306;SDS011;3694;48.732;9.248;2023-05-15T17:59:49;2.17;;;2.07;;
7306;SDS011;3694;48.732;9.248;2023-05-15T18:02:15;2.50;;;2.30;;
7306;SDS011;3694;48.732;9.248;2023-05-15T18:04:40;2.30;;;2.20;;
7306;SDS011;3694;48.732;9.248;2023-05-15T18:07:06;3.07;;;2.17;;
7306;SDS011;3694;48.732;9.248;2023-05-15T18:09:32;2.60;;;2.40;;
7306;SDS011;3694;48.732;9.248;2023-05-15T18:11:57;3.47;;;2.70;;
7306;SDS011;3694;48.732;9.248;2023-05-15T18:14:23;3.10;;;2.40;;
7306;SDS011;3694;48.732;9.248;2023-05-15T18:16:48;3.17;;;2.70;;
7306;SDS011;3694;48.732;9.248;2023-05-15T18:19:14;3.87;;;2.77;;
7306;SDS011;3694;48.732;9.248;2023-05-15T18:21:39;3.10;;;2.87;;
7306;SDS011;3694;48.732;9.248;2023-05-15T18:24:05;2.90;;;2.60;;
7306;SDS011;3694;48.732;9.248;2023-05-15T18:26:30;3.20;;;2.90;;
7306;SDS011;3694;48.732;9.248;2023-05-15T18:28:56;2.50;;;2.30;;
7306;SDS011;3694;48.732;9.248;2023-05-15T18:31:21;2.80;;;2.50;;
7306;SDS011;3694;48.732;9.248;2023-05-15T18:33:47;4.57;;;3.30;;
7306;SDS011;3694;48.732;9.248;2023-05-15T18:36:12;3.60;;;3.30;;
7306;SDS011;3694;48.732;9.248;2023-05-15T18:38:38;3.03;;;2.73;;
7306;SDS011;3694;48.732;9.248;2023-05-15T18:41:04;3.30;;;3.03;;
7306;SDS011;3694;48.732;9.248;2023-05-15T18:43:29;3.60;;;3.30;;
7306;SDS011;3694;48.732;9.248;2023-05-15T18:45:55;3.47;;;3.17;;
7306;SDS011;3694;48.732;9.248;2023-05-15T18:48:20;3.47;;;3.17;;
7306;SDS011;3694;48.732;9.248;2023-05-15T18:50:46;3.67;;;3.30;;
7306;SDS011;3694;48.732;9.248;2023-05-15T18:53:11;3.67;;;3.37;;
7306;SDS011;3694;48.732;9.248;2023-05-15T18:55:37;3.80;;;3.33;;
7306;SDS011;3694;48.732;9.248;2023-05-15T18:58:03;3.73;;;3.43;;
7306;SDS011;3694;48.732;9.248;2023-05-15T19:00:29;4.37;;;3.47;;
7306;SDS011;3694;48.732;9.248;2023-05-15T19:02:54;3.90;;;3.60;;
7306;SDS011;3694;48.732;9.248;2023-05-15T19:05:20;4.07;;;3.70;;
7306;SDS011;3694;48.732;9.248;2023-05-15T19:07:45;4.27;;;3.87;;
7306;SDS011;3694;48.732;9.248;2023-05-15T19:10:11;4.47;;;4.07;;
7306;SDS011;3694;48.732;9.248;2023-05-15T19:12:37;3.93;;;3.63;;
7306;SDS011;3694;48.732;9.248;2023-05-15T19:15:02;4.70;;;4.30;;
7306;SDS011;3694;48.732;9.248;2023-05-15T19:17:28;6.73;;;4.37;;
7306;SDS011;3694;48.732;9.248;2023-05-15T19:19:54;4.50;;;4.10;;
7306;SDS011;3694;48.732;9.248;2023-05-15T19:22:20;4.30;;;3.60;;
7306;SDS011;3694;48.732;9.248;2023-05-15T19:24:45;4.30;;;3.90;;
7306;SDS011;3694;48.732;9.248;2023-05-15T19:27:11;4.53;;;4.13;;
7306;SDS011;3694;48.732;9.248;2023-05-15T19:29:37;4.27;;;3.97;;
7306;SDS011;3694;48.732;9.248;2023-05-15T19:32:03;4.73;;;4.33;;
7306;SDS011;3694;48.732;9.248;2023-05-15T19:34:29;4.43;;;4.03;;
7306;SDS011;3694;48.732;9.248;2023-05-15T19:36:54;4.73;;;4.17;;
7306;SDS011;3694;48.732;9.248;2023-05-15T19:39:20;4.73;;;4.33;;
7306;SDS011;3694;48.732;9.248;2023-05-15T19:41:45;4.40;;;4.00;;
7306;SDS011;3694;48.732;9.248;2023-05-15T19:44:11;8.10;;;4.67;;
7306;SDS011;3694;48.732;9.248;2023-05-15T19:46:37;4.87;;;4.37;;
7306;SDS011;3694;48.732;9.248;2023-05-15T19:49:03;4.97;;;4.47;;
7306;SDS011;3694;48.732;9.248;2023-05-15T19:51:29;4.67;;;4.20;;
7306;SDS011;3694;48.732;9.248;2023-05-15T19:53:55;5.47;;;4.97;;
7306;SDS011;3694;48.732;9.248;2023-05-15T19:56:23;5.43;;;4.93;;
7306;SDS011;3694;48.732;9.248;2023-05-15T19:58:49;5.33;;;4.90;;
7306;SDS011;3694;48.732;9.248;2023-05-15T20:01:15;4.87;;;4.47;;
7306;SDS011;3694;48.732;9.248;2023-05-15T20:03:41;5.57;;;5.07;;
7306;SDS011;3694;48.732;9.248;2023-05-15T20:06:07;5.00;;;4.50;;
7306;SDS011;3694;48.732;9.248;2023-05-15T20:08:34;6.10;;;5.50;;
7306;SDS011;3694;48.732;9.248;2023-05-15T20:11:00;6.13;;;5.53;;
7306;SDS011;3694;48.732;9.248;2023-05-15T20:13:25;7.33;;;5.77;;
7306;SDS011;3694;48.732;9.248;2023-05-15T20:15:54;8.03;;;6.87;;
7306;SDS011;3694;48.732;9.248;2023-05-15T20:18:27;6.57;;;5.80;;
7306;SDS011;3694;48.732;9.248;2023-05-15T20:20:53;7.10;;;6.13;;
7306;SDS011;3694;48.732;9.248;2023-05-15T20:23:19;8.63;;;7.00;;
7306;SDS011;3694;48.732;9.248;2023-05-15T20:25:45;8.17;;;7.00;;
7306;SDS011;3694;48.732;9.248;2023-05-15T20:28:11;7.47;;;6.77;;
7306;SDS011;3694;48.732;9.248;2023-05-15T20:30:37;7.43;;;6.73;;
7306;SDS011;3694;48.732;9.248;2023-05-15T20:33:03;7.00;;;6.30;;
7306;SDS011;3694;48.732;9.248;2023-05-15T20:35:28;8.90;;;7.00;;
7306;SDS011;3694;48.732;9.248;2023-05-15T20:37:55;7.33;;;6.63;;
7306;SDS011;3694;48.732;9.248;2023-05-15T20:40:21;7.43;;;6.77;;
7306;SDS011;3694;48.732;9.248;2023-05-15T20:42:49;7.57;;;6.87;;
7306;SDS011;3694;48.732;9.248;2023-05-15T20:45:16;7.13;;;6.53;;
7306;SDS011;3694;48.732;9.248;2023-05-15T20:47:41;7.30;;;6.13;;
7306;SDS011;3694;48.732;9.248;2023-05-15T20:50:07;7.67;;;6.87;;
7306;SDS011;3694;48.732;9.248;2023-05-15T20:52:33;7.47;;;6.77;;
7306;SDS011;3694;48.732;9.248;2023-05-15T20:54:59;7.40;;;6.70;;
7306;SDS011;3694;48.732;9.248;2023-05-15T20:57:24;6.87;;;6.23;;
7306;SDS011;3694;48.732;9.248;2023-05-15T20:59:50;6.77;;;6.17;;
7306;SDS011;3694;48.732;9.248;2023-05-15T21:02:15;6.77;;;6.10;;
7306;SDS011;3694;48.732;9.248;2023-05-15T21:04:41;7.57;;;6.33;;
7306;SDS011;3694;48.732;9.248;2023-05-15T21:07:10;7.07;;;6.47;;
7306;SDS011;3694;48.732;9.248;2023-05-15T21:09:35;7.77;;;7.07;;
7306;SDS011;3694;48.732;9.248;2023-05-15T21:12:01;6.83;;;6.23;;
7306;SDS011;3694;48.732;9.248;2023-05-15T21:14:27;8.00;;;7.20;;
7306;SDS011;3694;48.732;9.248;2023-05-15T21:16:53;7.00;;;6.30;;